createdAt,value
2023-04-24T00:02:20.452Z,9.72
2023-04-24T00:04:47.320Z,9.75
2023-04-24T00:07:14.086Z,9.77
2023-04-24T00:09:41.072Z,9.80
2023-04-24T00:12:08.020Z,9.85
2023-04-24T00:14:35.988Z,9.89
2023-04-24T00:17:03.628Z,9.91
2023-04-24T00:19:30.373Z,9.88
2023-04-24T00:21:57.023Z,9.85
2023-04-24T00:24:23.599Z,9.76
2023-04-24T00:26:50.290Z,9.69
2023-04-24T00:29:16.853Z,9.61
2023-04-24T00:31:43.455Z,9.59
2023-04-24T00:34:11.616Z,9.59
2023-04-24T00:36:38.273Z,9.62
2023-04-24T00:39:04.923Z,9.67
2023-04-24T00:41:31.580Z,9.59
2023-04-24T00:43:58.176Z,9.55
2023-04-24T00:46:24.913Z,9.54
2023-04-24T00:48:51.566Z,9.56
2023-04-24T00:51:18.147Z,9.52
2023-04-24T00:53:44.746Z,9.50
2023-04-24T00:56:12.092Z,9.55
2023-04-24T00:58:38.740Z,9.58
2023-04-24T01:01:08.136Z,9.56
2023-04-24T01:03:35.190Z,9.59
2023-04-24T01:06:01.883Z,9.62
2023-04-24T01:08:29.302Z,9.66
2023-04-24T01:10:56.976Z,9.69
2023-04-24T01:13:24.021Z,9.68
2023-04-24T01:15:50.774Z,9.72
2023-04-24T01:18:17.460Z,9.76
2023-04-24T01:20:45.360Z,9.78
2023-04-24T01:23:12.071Z,9.78
2023-04-24T01:25:38.653Z,9.74
2023-04-24T01:28:05.245Z,9.72
2023-04-24T01:30:32.167Z,9.71
2023-04-24T01:32:58.743Z,9.74
2023-04-24T01:35:26.003Z,9.77
2023-04-24T01:37:52.608Z,9.78
2023-04-24T01:40:19.159Z,9.80
2023-04-24T01:42:46.045Z,9.80
2023-04-24T01:45:13.229Z,9.81
2023-04-24T01:47:40.330Z,9.79
2023-04-24T01:50:07.389Z,9.82
2023-04-24T01:52:34.482Z,9.77
2023-04-24T01:55:01.447Z,9.80
2023-04-24T01:57:28.324Z,9.77
2023-04-24T01:59:54.957Z,9.72
2023-04-24T02:02:22.447Z,9.69
2023-04-24T02:04:49.178Z,9.74
2023-04-24T02:07:15.758Z,9.82
2023-04-24T02:09:42.609Z,9.89
2023-04-24T02:12:09.442Z,9.96
2023-04-24T02:14:36.055Z,10.00
2023-04-24T02:17:03.717Z,10.05
2023-04-24T02:19:30.287Z,10.08
2023-04-24T02:21:56.826Z,10.12
2023-04-24T02:24:23.421Z,10.18
2023-04-24T02:26:50.114Z,10.20
2023-04-24T02:29:16.964Z,10.21
2023-04-24T02:31:43.584Z,10.21
2023-04-24T02:34:10.518Z,10.16
2023-04-24T02:36:37.351Z,10.06
2023-04-24T02:39:04.680Z,10.00
2023-04-24T02:41:33.819Z,9.94
2023-04-24T02:44:00.782Z,9.92
2023-04-24T02:46:27.397Z,9.89
2023-04-24T02:48:54.198Z,9.86
2023-04-24T02:51:20.894Z,9.81
2023-04-24T02:53:47.488Z,9.74
2023-04-24T02:56:14.127Z,9.78
2023-04-24T02:58:40.982Z,9.86
2023-04-24T03:01:07.744Z,9.92
2023-04-24T03:03:34.566Z,9.96
2023-04-24T03:06:01.252Z,9.95
2023-04-24T03:08:27.818Z,9.96
2023-04-24T03:10:54.361Z,9.99
2023-04-24T03:13:20.916Z,10.02
2023-04-24T03:15:48.162Z,10.05
2023-04-24T03:18:14.834Z,10.08
2023-04-24T03:20:41.572Z,10.12
2023-04-24T03:23:08.174Z,10.14
2023-04-24T03:25:35.188Z,10.13
2023-04-24T03:28:02.156Z,10.13
2023-04-24T03:30:51.249Z,10.12
2023-04-24T03:33:18.137Z,10.10
2023-04-24T03:35:53.949Z,10.06
2023-04-24T03:38:20.693Z,10.01
2023-04-24T03:41:02.062Z,9.98
2023-04-24T03:43:50.062Z,9.99
2023-04-24T03:46:16.699Z,9.98
2023-04-24T03:48:48.165Z,9.97
2023-04-24T03:51:16.622Z,9.92
2023-04-24T03:53:45.265Z,9.90
2023-04-24T03:56:12.612Z,9.87
2023-04-24T03:58:40.838Z,9.84
2023-04-24T04:01:08.621Z,9.81
2023-04-24T04:03:48.248Z,9.83
2023-04-24T04:06:17.195Z,9.81
2023-04-24T04:08:43.723Z,9.78
2023-04-24T04:11:10.476Z,9.77
2023-04-24T04:13:37.032Z,9.74
2023-04-24T04:16:03.876Z,9.73
2023-04-24T04:18:30.612Z,9.75
2023-04-24T04:20:58.030Z,9.77
2023-04-24T04:23:24.932Z,9.78
2023-04-24T04:26:14.984Z,9.80
2023-04-24T04:28:52.724Z,9.78
2023-04-24T04:31:20.817Z,9.77
2023-04-24T04:33:48.269Z,9.75
2023-04-24T04:36:14.950Z,9.78
2023-04-24T04:38:46.123Z,9.81
2023-04-24T04:41:26.435Z,9.85
2023-04-24T04:43:53.935Z,9.88
2023-04-24T04:46:21.707Z,9.87
2023-04-24T04:49:17.967Z,9.86
2023-04-24T04:51:46.222Z,9.89
2023-04-24T04:54:12.940Z,9.93
2023-04-24T04:56:39.599Z,9.98
2023-04-24T04:59:07.454Z,10.04
2023-04-24T05:01:35.999Z,10.11
2023-04-24T05:04:02.938Z,10.15
2023-04-24T05:06:29.788Z,10.20
2023-04-24T05:08:58.388Z,10.27
2023-04-24T05:11:45.497Z,10.32
2023-04-24T05:14:13.574Z,10.37
2023-04-24T05:16:41.535Z,10.43
2023-04-24T05:19:09.376Z,10.48
2023-04-24T05:21:41.241Z,10.53
2023-04-24T05:24:08.393Z,10.61
2023-04-24T05:26:54.100Z,10.67
2023-04-24T05:29:24.854Z,10.72
2023-04-24T05:31:51.418Z,10.78
2023-04-24T05:34:18.653Z,10.83
2023-04-24T05:36:47.480Z,10.88
2023-04-24T05:39:14.973Z,10.91
2023-04-24T05:41:41.693Z,10.97
2023-04-24T05:44:08.476Z,11.03
2023-04-24T05:46:35.128Z,11.09
2023-04-24T05:49:01.806Z,11.16
2023-04-24T05:51:28.549Z,11.22
2023-04-24T05:53:55.850Z,11.29
2023-04-24T05:56:22.621Z,11.36
2023-04-24T05:58:49.558Z,11.42
2023-04-24T06:01:16.832Z,11.50
2023-04-24T06:03:45.863Z,11.57
2023-04-24T06:06:12.804Z,11.64
2023-04-24T06:08:39.707Z,11.71
2023-04-24T06:11:06.408Z,11.81
2023-04-24T06:13:33.072Z,11.89
2023-04-24T06:16:18.188Z,11.96
2023-04-24T06:18:49.834Z,12.03
2023-04-24T06:21:17.253Z,12.12
2023-04-24T06:23:45.065Z,12.21
2023-04-24T06:26:11.614Z,12.29
2023-04-24T06:28:38.820Z,12.36
2023-04-24T06:31:05.369Z,12.43
2023-04-24T06:33:32.998Z,12.51
2023-04-24T06:35:59.730Z,12.58
2023-04-24T06:38:26.549Z,12.67
2023-04-24T06:40:53.207Z,12.77
2023-04-24T06:43:20.257Z,12.90
2023-04-24T06:45:48.075Z,13.10
2023-04-24T06:48:14.680Z,13.34
2023-04-24T06:50:41.253Z,13.58
2023-04-24T06:53:07.893Z,13.85
2023-04-24T06:55:34.873Z,14.15
2023-04-24T06:58:01.614Z,14.39
2023-04-24T07:00:28.503Z,14.61
2023-04-24T07:02:55.430Z,14.76
2023-04-24T07:05:22.179Z,14.88
2023-04-24T07:07:50.103Z,15.07
2023-04-24T07:10:16.721Z,15.21
2023-04-24T07:12:43.273Z,15.33
2023-04-24T07:15:10.108Z,15.46
2023-04-24T07:17:37.069Z,15.53
2023-04-24T07:20:04.131Z,15.55
2023-04-24T07:22:30.901Z,15.55
2023-04-24T07:24:57.556Z,15.59
2023-04-24T07:27:24.114Z,15.63
2023-04-24T07:29:51.043Z,15.63
2023-04-24T07:32:17.604Z,15.59
2023-04-24T07:34:44.397Z,15.59
2023-04-24T07:37:11.317Z,15.58
2023-04-24T07:39:38.099Z,15.60
2023-04-24T07:42:05.372Z,15.61
2023-04-24T07:44:32.922Z,15.61
2023-04-24T07:46:59.463Z,15.62
2023-04-24T07:49:26.126Z,15.67
2023-04-24T07:51:52.738Z,15.73
2023-04-24T07:54:19.321Z,15.84
2023-04-24T07:56:46.322Z,15.96
2023-04-24T07:59:12.895Z,16.10
2023-04-24T08:01:39.582Z,16.23
2023-04-24T08:04:07.245Z,16.32
2023-04-24T08:06:34.303Z,16.44
2023-04-24T08:09:01.370Z,16.52
2023-04-24T08:11:27.939Z,16.57
2023-04-24T08:13:56.015Z,16.66
2023-04-24T08:16:24.769Z,16.76
2023-04-24T08:18:51.582Z,16.86
2023-04-24T08:21:19.664Z,16.98
2023-04-24T08:23:46.694Z,17.08
2023-04-24T08:26:13.698Z,17.14
2023-04-24T08:28:40.231Z,17.22
2023-04-24T08:31:07.055Z,17.28
2023-04-24T08:33:36.011Z,17.33
2023-04-24T08:36:03.384Z,17.43
2023-04-24T08:38:30.224Z,17.58
2023-04-24T08:40:57.627Z,17.67
2023-04-24T08:43:24.290Z,17.72
2023-04-24T08:45:50.976Z,17.74
2023-04-24T08:48:29.777Z,17.75
2023-04-24T08:50:58.388Z,17.81
2023-04-24T08:53:25.837Z,17.93
2023-04-24T08:55:52.833Z,17.92
2023-04-24T08:58:19.763Z,17.89
2023-04-24T09:00:48.168Z,17.83
2023-04-24T09:03:15.820Z,17.76
2023-04-24T09:05:46.714Z,17.70
2023-04-24T09:08:17.217Z,17.73
2023-04-24T09:10:44.411Z,17.84
2023-04-24T09:13:11.492Z,17.95
2023-04-24T09:15:41.942Z,18.04
2023-04-24T09:18:08.637Z,18.09
2023-04-24T09:20:37.262Z,18.10
2023-04-24T09:23:03.906Z,18.05
2023-04-24T09:25:34.624Z,17.99
2023-04-24T09:28:01.889Z,17.91
2023-04-24T09:30:28.503Z,17.84
2023-04-24T09:33:10.791Z,17.77
2023-04-24T09:35:37.411Z,17.70
2023-04-24T09:38:03.972Z,17.65
2023-04-24T09:40:30.623Z,17.60
2023-04-24T09:43:02.262Z,17.56
2023-04-24T09:45:29.511Z,17.49
2023-04-24T09:47:56.772Z,17.38
2023-04-24T09:50:23.420Z,17.33
2023-04-24T09:52:59.850Z,17.31
2023-04-24T09:55:26.464Z,17.29
2023-04-24T09:57:54.164Z,17.27
2023-04-24T10:00:28.071Z,17.29
2023-04-24T10:02:58.472Z,17.30
2023-04-24T10:05:26.370Z,17.30
2023-04-24T10:07:53.036Z,17.30
2023-04-24T10:10:19.863Z,17.30
2023-04-24T10:12:46.637Z,17.28
2023-04-24T10:15:14.191Z,17.26
2023-04-24T10:17:40.965Z,17.23
2023-04-24T10:20:08.034Z,17.22
2023-04-24T10:22:34.583Z,17.21
2023-04-24T10:25:01.336Z,17.20
2023-04-24T10:27:28.063Z,17.19
2023-04-24T10:29:54.646Z,17.21
2023-04-24T10:32:21.764Z,17.22
2023-04-24T10:34:48.697Z,17.24
2023-04-24T10:37:15.441Z,17.25
2023-04-24T10:39:42.114Z,17.22
2023-04-24T10:42:16.318Z,17.24
2023-04-24T10:44:43.142Z,17.28
2023-04-24T10:47:16.206Z,17.32
2023-04-24T10:49:42.762Z,17.32
2023-04-24T10:52:09.745Z,17.33
2023-04-24T10:54:37.286Z,17.37
2023-04-24T10:57:19.639Z,17.39
2023-04-24T10:59:46.414Z,17.44
2023-04-24T11:02:15.374Z,17.51
2023-04-24T11:04:42.436Z,17.63
2023-04-24T11:07:09.252Z,17.80
2023-04-24T11:09:37.414Z,17.92
2023-04-24T11:12:08.688Z,18.08
2023-04-24T11:14:54.346Z,18.13
2023-04-24T11:17:34.612Z,18.14
2023-04-24T11:20:25.097Z,18.11
2023-04-24T11:22:53.767Z,18.07
2023-04-24T11:25:20.568Z,18.05
2023-04-24T11:27:48.042Z,18.07
2023-04-24T11:30:17.733Z,18.15
2023-04-24T11:32:44.299Z,18.24
2023-04-24T11:35:11.110Z,18.29
2023-04-24T11:37:38.402Z,18.35
2023-04-24T11:40:08.731Z,18.42
2023-04-24T11:42:36.057Z,18.40
2023-04-24T11:45:03.663Z,18.36
2023-04-24T11:47:31.485Z,18.36
2023-04-24T11:49:58.895Z,18.39
2023-04-24T11:52:25.770Z,18.44
2023-04-24T11:54:52.549Z,18.47
2023-04-24T11:57:23.197Z,18.36
2023-04-24T11:59:50.041Z,18.22
2023-04-24T12:02:23.981Z,18.10
2023-04-24T12:04:51.320Z,18.00
2023-04-24T12:07:18.151Z,17.89
2023-04-24T12:09:46.254Z,17.85
2023-04-24T12:12:14.809Z,17.81
2023-04-24T12:14:45.341Z,17.76
2023-04-24T12:17:11.930Z,17.68
2023-04-24T12:19:38.563Z,17.63
2023-04-24T12:22:06.654Z,17.55
2023-04-24T12:24:33.336Z,17.53
2023-04-24T12:26:59.898Z,17.53
2023-04-24T12:29:27.031Z,17.55
2023-04-24T12:31:53.627Z,17.54
2023-04-24T12:34:21.549Z,17.53
2023-04-24T12:36:48.647Z,17.53
2023-04-24T12:39:16.511Z,17.52
2023-04-24T12:41:57.709Z,17.50
2023-04-24T12:44:35.521Z,17.50
2023-04-24T12:47:02.478Z,17.52
2023-04-24T12:49:31.390Z,17.57
2023-04-24T12:51:57.966Z,17.62
2023-04-24T12:54:24.550Z,17.72
2023-04-24T12:56:51.457Z,17.84
2023-04-24T12:59:18.003Z,17.96
2023-04-24T13:01:44.744Z,18.07
2023-04-24T13:04:11.727Z,18.12
2023-04-24T13:06:38.392Z,18.14
2023-04-24T13:09:04.951Z,18.12
2023-04-24T13:11:31.513Z,18.13
2023-04-24T13:13:58.323Z,18.15
2023-04-24T13:16:24.973Z,18.16
2023-04-24T13:18:51.716Z,18.21
2023-04-24T13:21:18.341Z,18.28
2023-04-24T13:23:45.136Z,18.37
2023-04-24T13:26:11.907Z,18.47
2023-04-24T13:28:39.316Z,18.63
2023-04-24T13:31:06.114Z,18.73
2023-04-24T13:33:32.686Z,18.75
2023-04-24T13:35:59.236Z,18.69
2023-04-24T13:38:25.956Z,18.57
2023-04-24T13:40:52.496Z,18.42
2023-04-24T13:43:19.098Z,18.30
2023-04-24T13:45:45.633Z,18.15
2023-04-24T13:48:12.353Z,18.06
2023-04-24T13:50:39.134Z,17.90
2023-04-24T13:53:05.682Z,17.76
2023-04-24T13:55:32.224Z,17.66
2023-04-24T13:57:58.809Z,17.56
2023-04-24T14:00:25.487Z,17.45
2023-04-24T14:02:52.091Z,17.33
2023-04-24T14:05:19.446Z,17.18
2023-04-24T14:07:46.044Z,17.07
2023-04-24T14:10:12.578Z,16.96
2023-04-24T14:12:39.253Z,16.91
2023-04-24T14:15:06.410Z,16.85
2023-04-24T14:17:32.989Z,16.82
2023-04-24T14:20:01.540Z,16.82
2023-04-24T14:22:28.376Z,16.80
2023-04-24T14:24:55.051Z,16.79
2023-04-24T14:27:21.615Z,16.83
2023-04-24T14:29:48.148Z,16.84
2023-04-24T14:32:16.244Z,16.92
2023-04-24T14:34:43.146Z,16.93
2023-04-24T14:37:09.683Z,16.97
2023-04-24T14:39:36.400Z,16.99
2023-04-24T14:42:03.036Z,17.02
2023-04-24T14:44:29.588Z,17.01
2023-04-24T14:46:56.321Z,17.02
2023-04-24T14:49:24.076Z,17.02
2023-04-24T14:51:50.679Z,17.03
2023-04-24T14:54:17.285Z,17.04
2023-04-24T14:56:45.477Z,17.04
2023-04-24T14:59:12.071Z,17.05
2023-04-24T15:01:38.690Z,17.02
2023-04-24T15:04:06.079Z,17.03
2023-04-24T15:06:33.881Z,17.02
2023-04-24T15:09:00.877Z,17.04
2023-04-24T15:11:27.484Z,17.06
2023-04-24T15:13:54.121Z,17.05
2023-04-24T15:16:21.625Z,17.03
2023-04-24T15:18:48.400Z,17.01
2023-04-24T15:21:15.472Z,17.00
2023-04-24T15:23:42.029Z,16.99
2023-04-24T15:26:08.582Z,17.00
2023-04-24T15:28:35.774Z,16.99
2023-04-24T15:31:02.321Z,16.98
2023-04-24T15:33:28.870Z,16.97
2023-04-24T15:35:55.622Z,16.98
2023-04-24T15:38:22.180Z,16.97
2023-04-24T15:40:49.449Z,16.95
2023-04-24T15:43:17.145Z,16.95
2023-04-24T15:45:44.216Z,16.95
2023-04-24T15:48:10.922Z,16.92
2023-04-24T15:50:37.834Z,16.90
2023-04-24T15:53:04.579Z,16.88
2023-04-24T15:55:31.149Z,16.85
2023-04-24T15:57:57.702Z,16.84
2023-04-24T16:00:24.296Z,16.81
2023-04-24T16:02:51.727Z,16.77
2023-04-24T16:05:20.006Z,16.74
2023-04-24T16:07:46.897Z,16.72
2023-04-24T16:10:13.615Z,16.68
2023-04-24T16:12:40.904Z,16.64
2023-04-24T16:15:07.616Z,16.60
2023-04-24T16:17:34.409Z,16.56
2023-04-24T16:20:01.611Z,16.53
2023-04-24T16:22:28.561Z,16.49
2023-04-24T16:24:55.333Z,16.45
2023-04-24T16:27:21.869Z,16.41
2023-04-24T16:29:48.468Z,16.32
2023-04-24T16:32:15.075Z,16.27
2023-04-24T16:34:41.644Z,16.22
2023-04-24T16:37:08.186Z,16.16
2023-04-24T16:39:34.978Z,16.10
2023-04-24T16:42:01.951Z,16.06
2023-04-24T16:44:28.662Z,15.98
2023-04-24T16:46:55.338Z,15.92
2023-04-24T16:49:23.755Z,15.88
2023-04-24T16:51:50.924Z,15.83
2023-04-24T16:54:17.638Z,15.75
2023-04-24T16:56:44.188Z,15.69
2023-04-24T16:59:10.770Z,15.63
2023-04-24T17:01:37.310Z,15.57
2023-04-24T17:04:04.095Z,15.51
2023-04-24T17:06:31.927Z,15.43
2023-04-24T17:09:00.459Z,15.31
2023-04-24T17:11:28.433Z,15.20
2023-04-24T17:13:56.974Z,15.08
2023-04-24T17:16:23.619Z,14.96
2023-04-24T17:18:50.923Z,14.85
2023-04-24T17:21:17.744Z,14.79
2023-04-24T17:23:44.512Z,14.73
2023-04-24T17:26:11.652Z,14.67
2023-04-24T17:28:38.194Z,14.56
2023-04-24T17:31:04.891Z,14.42
2023-04-24T17:33:31.498Z,14.35
2023-04-24T17:35:58.421Z,14.29
2023-04-24T17:38:25.034Z,14.23
2023-04-24T17:40:53.060Z,14.13
2023-04-24T17:43:20.428Z,13.98
2023-04-24T17:45:47.335Z,13.83
2023-04-24T17:48:14.247Z,13.75
2023-04-24T17:50:40.991Z,13.71
2023-04-24T17:53:07.668Z,13.73
2023-04-24T17:55:37.300Z,13.71
2023-04-24T17:58:04.227Z,13.67
2023-04-24T18:00:31.206Z,13.65
2023-04-24T18:03:01.279Z,13.58
2023-04-24T18:05:28.818Z,13.47
2023-04-24T18:07:55.526Z,13.40
2023-04-24T18:10:23.087Z,13.32
2023-04-24T18:12:49.730Z,13.22
2023-04-24T18:15:17.087Z,13.11
2023-04-24T18:17:43.780Z,12.97
2023-04-24T18:20:11.501Z,12.93
2023-04-24T18:22:38.070Z,12.95
2023-04-24T18:25:04.990Z,12.96
2023-04-24T18:27:31.895Z,12.96
2023-04-24T18:29:58.749Z,12.95
2023-04-24T18:32:25.581Z,12.95
2023-04-24T18:34:52.369Z,12.96
2023-04-24T18:37:18.960Z,12.98
2023-04-24T18:39:45.624Z,12.99
2023-04-24T18:42:12.183Z,13.04
2023-04-24T18:44:41.075Z,13.08
2023-04-24T18:47:08.269Z,13.11
2023-04-24T18:49:34.884Z,13.13
2023-04-24T18:52:01.983Z,13.15
2023-04-24T18:54:28.727Z,13.18
2023-04-24T18:56:55.392Z,13.20
2023-04-24T18:59:22.133Z,13.20
2023-04-24T19:01:48.781Z,13.20
2023-04-24T19:04:16.047Z,13.21
2023-04-24T19:06:42.660Z,13.22
2023-04-24T19:09:09.197Z,13.23
2023-04-24T19:11:35.942Z,13.25
2023-04-24T19:14:05.792Z,13.25
2023-04-24T19:16:32.412Z,13.27
2023-04-24T19:18:59.028Z,13.27
2023-04-24T19:21:26.233Z,13.25
2023-04-24T19:23:52.982Z,13.23
2023-04-24T19:26:19.685Z,13.21
2023-04-24T19:28:46.621Z,13.22
2023-04-24T19:31:13.408Z,13.20
2023-04-24T19:33:39.948Z,13.17
2023-04-24T19:36:06.679Z,13.16
2023-04-24T19:38:33.214Z,13.14
2023-04-24T19:40:59.767Z,13.13
2023-04-24T19:43:26.462Z,13.12
2023-04-24T19:45:53.097Z,13.13
2023-04-24T19:48:19.857Z,13.13
2023-04-24T19:50:46.670Z,13.13
2023-04-24T19:53:13.386Z,13.11
2023-04-24T19:55:40.171Z,13.13
2023-04-24T19:58:06.913Z,13.12
2023-04-24T20:00:35.097Z,13.09
2023-04-24T20:03:03.060Z,13.06
2023-04-24T20:05:29.893Z,13.04
2023-04-24T20:07:56.557Z,12.99
2023-04-24T20:10:23.160Z,12.96
2023-04-24T20:12:50.314Z,12.93
2023-04-24T20:15:16.948Z,12.89
2023-04-24T20:17:43.487Z,12.83
2023-04-24T20:20:10.662Z,12.77
2023-04-24T20:22:40.753Z,12.75
2023-04-24T20:25:07.983Z,12.74
2023-04-24T20:27:34.869Z,12.71
2023-04-24T20:30:01.463Z,12.69
2023-04-24T20:32:28.018Z,12.67
2023-04-24T20:34:54.617Z,12.65
2023-04-24T20:37:21.341Z,12.65
2023-04-24T20:39:49.707Z,12.65
2023-04-24T20:42:16.779Z,12.65
2023-04-24T20:44:45.560Z,12.62
2023-04-24T20:47:12.165Z,12.62
2023-04-24T20:49:38.800Z,12.63
2023-04-24T20:52:06.419Z,12.62
2023-04-24T20:54:33.018Z,12.62
2023-04-24T20:56:59.854Z,12.61
2023-04-24T20:59:26.823Z,12.62
2023-04-24T21:01:53.407Z,12.62
2023-04-24T21:04:20.048Z,12.63
2023-04-24T21:06:47.841Z,12.64
2023-04-24T21:09:14.410Z,12.65
2023-04-24T21:14:08.230Z,12.68
2023-04-24T21:16:34.822Z,12.64
2023-04-24T21:19:01.487Z,12.55
2023-04-24T21:21:28.054Z,12.48
2023-04-24T21:23:54.769Z,12.48
2023-04-24T21:26:21.499Z,12.44
2023-04-24T21:28:48.125Z,12.43
2023-04-24T21:31:14.688Z,12.41
2023-04-24T21:33:41.472Z,12.40
2023-04-24T21:36:08.146Z,12.40
2023-04-24T21:38:34.687Z,12.40
2023-04-24T21:41:01.309Z,12.38
2023-04-24T21:43:37.214Z,12.28
2023-04-24T21:46:08.076Z,12.20
2023-04-24T21:48:34.849Z,12.12
2023-04-24T21:51:01.407Z,12.03
2023-04-24T21:53:29.566Z,11.96
2023-04-24T21:55:56.094Z,11.95
2023-04-24T21:58:22.704Z,11.92
2023-04-24T22:00:49.254Z,11.75
2023-04-24T22:03:17.016Z,11.61
2023-04-24T22:05:43.719Z,11.58
2023-04-24T22:08:10.523Z,11.54
2023-04-24T22:10:38.022Z,11.42
2023-04-24T22:13:04.621Z,11.33
2023-04-24T22:15:31.711Z,11.22
2023-04-24T22:17:58.941Z,11.18
2023-04-24T22:20:26.052Z,11.17
2023-04-24T22:22:52.749Z,11.14
2023-04-24T22:25:19.691Z,11.13
2023-04-24T22:27:46.278Z,11.12
2023-04-24T22:30:13.028Z,11.10
2023-04-24T22:32:39.644Z,11.05
2023-04-24T22:35:06.641Z,10.93
2023-04-24T22:37:33.401Z,10.91
2023-04-24T22:40:01.267Z,10.87
2023-04-24T22:42:28.843Z,10.86
2023-04-24T22:44:55.709Z,10.86
2023-04-24T22:47:22.383Z,10.85
2023-04-24T22:49:49.157Z,10.84
2023-04-24T22:52:17.208Z,10.84
2023-04-24T22:54:43.824Z,10.88
2023-04-24T22:57:12.474Z,10.90
2023-04-24T22:59:39.251Z,10.87
2023-04-24T23:02:05.867Z,10.88
2023-04-24T23:04:32.662Z,10.89
2023-04-24T23:06:59.463Z,10.89
2023-04-24T23:09:26.015Z,10.89
2023-04-24T23:11:52.928Z,10.93
2023-04-24T23:14:19.473Z,10.95
2023-04-24T23:16:46.611Z,10.96
2023-04-24T23:19:13.353Z,10.98
2023-04-24T23:21:39.938Z,10.89
2023-04-24T23:24:06.537Z,10.85
2023-04-24T23:26:33.167Z,10.82
2023-04-24T23:29:00.175Z,10.71
2023-04-24T23:31:26.819Z,10.60
2023-04-24T23:33:53.658Z,10.51
2023-04-24T23:36:20.199Z,10.51
2023-04-24T23:38:50.178Z,10.47
2023-04-24T23:41:17.681Z,10.37
2023-04-24T23:43:44.232Z,10.29
2023-04-24T23:46:10.903Z,10.29
2023-04-24T23:48:37.632Z,10.24
2023-04-24T23:51:04.468Z,10.21
2023-04-24T23:53:31.011Z,10.23
2023-04-24T23:55:57.558Z,10.24
2023-04-24T23:58:24.146Z,10.26
